Time;durP1;ratioP1;P1;durP2;ratioP2;P2;SDS_P1;SDS_P2;PMS_P1;PMS_P2;Temp;Humidity;BMP_temperature;BMP_pressure;BME280_temperature;BME280_humidity;BME280_pressure;Samples;Min_cycle;Max_cycle;Signal;HPM_P1;HPM_P2
2021/12/17 00:05:05;;;;;;;217.27;98.53;;;;;;;-0.75;100.00;102306.38;6233607;23;19996;-87
2021/12/17 00:12:58;;;;;;;268.88;102.05;;;;;;;-0.73;100.00;102313.22;6204479;23;20025;-90
2021/12/17 00:15:44;;;;;;;310.02;101.25;;;;;;;-0.67;100.00;102313.06;6180302;23;20040;-91
2021/12/17 01:04:17;;;;;;;248.30;103.32;;;;;;;-0.41;100.00;102350.47;6245184;22;20020;-82
2021/12/17 05:26:34;;;;;;;97.25;47.70;;;;;;;0.24;100.00;102205.78;6267627;22;20097;-89
2021/12/17 05:45:22;;;;;;;76.77;37.57;;;;;;;-0.01;100.00;102211.03;6222010;22;20016;-90
2021/12/17 05:56:51;;;;;;;94.68;51.58;;;;;;;0.07;100.00;102228.97;6212590;23;20823;-81
2021/12/17 06:11:14;;;;;;;97.18;50.60;;;;;;;-0.37;100.00;102251.34;6249911;22;20259;-82
2021/12/17 06:35:56;;;;;;;105.20;53.78;;;;;;;-0.44;100.00;102246.38;6214133;22;20007;-88
2021/12/17 09:50:41;;;;;;;112.65;51.25;;;;;;;2.25;100.00;102236.00;6285153;22;20008;-92
2021/12/17 09:53:58;;;;;;;95.05;48.88;;;;;;;2.00;100.00;102237.94;6214894;22;20015;-86
2021/12/17 10:05:14;;;;;;;64.60;35.88;;;;;;;2.18;100.00;102234.56;6257434;22;20077;-90
2021/12/17 10:43:03;;;;;;;94.50;51.77;;;;;;;1.55;100.00;102202.38;6273653;22;20033;-90
2021/12/17 11:03:50;;;;;;;96.95;52.70;;;;;;;1.76;100.00;102169.25;6243611;22;20078;-89
2021/12/17 11:07:08;;;;;;;87.20;43.67;;;;;;;1.79;100.00;102163.06;6215351;23;20013;-87
2021/12/17 11:10:39;;;;;;;105.68;55.17;;;;;;;1.75;100.00;102161.50;6243041;22;20047;-90
2021/12/17 11:13:32;;;;;;;107.50;56.33;;;;;;;1.80;100.00;102147.31;6217057;22;20027;-85
2021/12/17 11:16:55;;;;;;;106.88;55.15;;;;;;;2.01;100.00;102149.00;6225096;22;20071;-87
2021/12/17 11:22:04;;;;;;;107.32;56.88;;;;;;;1.98;100.00;102140.44;6195440;22;20107;-86
2021/12/17 11:24:37;;;;;;;106.68;56.90;;;;;;;1.91;100.00;102136.38;6234731;23;20020;-88
2021/12/17 11:27:04;;;;;;;99.88;55.75;;;;;;;1.97;100.00;102136.13;6261739;23;20008;-87
2021/12/17 11:29:30;;;;;;;102.43;53.65;;;;;;;1.86;100.00;102128.72;6261599;23;20008;-87
2021/12/17 11:31:59;;;;;;;103.40;54.33;;;;;;;1.90;100.00;102132.06;6230576;23;20032;-86
2021/12/17 11:34:25;;;;;;;109.88;56.85;;;;;;;1.91;100.00;102124.16;6232819;23;20038;-86
2021/12/17 11:36:53;;;;;;;118.85;59.30;;;;;;;1.92;100.00;102130.25;6209794;23;20004;-85
2021/12/17 11:39:30;;;;;;;108.55;56.53;;;;;;;1.80;100.00;102130.78;6236437;23;20012;-85
2021/12/17 11:42:25;;;;;;;113.65;57.65;;;;;;;1.72;100.00;102132.88;6230206;23;20016;-84
2021/12/17 11:47:54;;;;;;;126.45;61.90;;;;;;;1.84;100.00;102130.59;6256214;23;20012;-89
2021/12/17 11:50:21;;;;;;;109.85;57.10;;;;;;;1.89;100.00;102112.09;6231061;23;20331;-87
2021/12/17 11:52:52;;;;;;;114.88;58.85;;;;;;;1.92;100.00;102109.34;6265563;23;20163;-86
2021/12/17 11:55:20;;;;;;;121.03;62.30;;;;;;;1.97;100.00;102104.75;6239872;23;20012;-87
2021/12/17 11:57:58;;;;;;;120.57;62.78;;;;;;;2.01;100.00;102106.31;6238657;23;20008;-87
2021/12/17 12:00:48;;;;;;;127.63;65.25;;;;;;;2.08;100.00;102102.50;6241465;23;20034;-89
2021/12/17 12:03:20;;;;;;;119.10;62.55;;;;;;;2.14;100.00;102097.00;6262752;23;20004;-89
2021/12/17 12:05:49;;;;;;;133.73;65.35;;;;;;;2.10;100.00;102090.19;6231149;23;20009;-89
2021/12/17 12:08:30;;;;;;;131.02;62.90;;;;;;;2.02;100.00;102081.88;6256622;23;20004;-88
2021/12/17 12:11:08;;;;;;;127.40;64.75;;;;;;;2.07;100.00;102078.13;6224478;23;20008;-90
2021/12/17 12:13:42;;;;;;;128.60;65.32;;;;;;;2.13;100.00;102079.59;6224882;23;20324;-86
2021/12/17 12:16:12;;;;;;;128.25;63.50;;;;;;;2.06;100.00;102067.72;6251170;23;20105;-87
2021/12/17 12:18:47;;;;;;;127.93;63.40;;;;;;;1.98;100.00;102064.63;6227540;23;20103;-89
2021/12/17 12:21:21;;;;;;;126.05;63.92;;;;;;;2.03;100.00;102058.25;6221517;23;20366;-89
2021/12/17 12:23:50;;;;;;;126.30;64.32;;;;;;;2.01;100.00;102054.00;6248660;23;20019;-87
2021/12/17 12:26:47;;;;;;;139.95;67.50;;;;;;;1.89;100.00;102037.09;6222261;23;20027;-88
2021/12/17 12:29:26;;;;;;;136.80;67.95;;;;;;;1.86;100.00;102034.63;6247652;23;20016;-88
2021/12/17 12:31:59;;;;;;;167.77;69.82;;;;;;;1.88;100.00;102037.19;6246402;23;20013;-88
2021/12/17 12:34:38;;;;;;;171.77;70.88;;;;;;;1.92;100.00;102025.69;6248787;23;20473;-88
2021/12/17 12:37:17;;;;;;;148.88;71.18;;;;;;;1.95;100.00;102025.53;6250117;23;20432;-86
2021/12/17 12:39:52;;;;;;;140.80;68.03;;;;;;;2.20;100.00;102017.38;6252116;23;20392;-88
2021/12/17 12:42:35;;;;;;;146.63;67.95;;;;;;;2.12;100.00;102009.94;6197016;23;20024;-87
2021/12/17 12:45:02;;;;;;;140.38;67.13;;;;;;;2.23;100.00;102007.63;6220561;23;20013;-88
2021/12/17 12:47:31;;;;;;;145.63;71.60;;;;;;;2.24;100.00;101998.03;6195963;23;20016;-88
2021/12/17 12:50:12;;;;;;;153.85;76.05;;;;;;;2.16;100.00;101990.53;6247327;23;20008;-85
2021/12/17 12:52:45;;;;;;;155.88;73.35;;;;;;;2.01;100.00;101980.81;6220003;23;20016;-85
2021/12/17 12:55:16;;;;;;;161.63;73.13;;;;;;;2.10;100.00;101975.13;6221046;23;20371;-87
2021/12/17 12:57:43;;;;;;;152.10;71.57;;;;;;;2.17;100.00;101979.16;6248666;23;20048;-86
2021/12/17 13:00:13;;;;;;;159.70;74.50;;;;;;;2.15;100.00;101967.94;6249928;23;20008;-85
2021/12/17 13:02:39;;;;;;;157.93;77.10;;;;;;;2.18;100.00;101973.03;6196172;23;20008;-88
2021/12/17 13:05:06;;;;;;;163.07;76.30;;;;;;;2.24;100.00;101959.63;6226630;23;20028;-86
2021/12/17 13:07:39;;;;;;;162.10;79.10;;;;;;;2.36;100.00;101964.28;6246594;23;20004;-86
2021/12/17 13:10:09;;;;;;;182.05;79.63;;;;;;;2.45;100.00;101955.13;6250967;23;20016;-88
2021/12/17 13:12:35;;;;;;;172.65;80.32;;;;;;;2.49;100.00;101952.28;6197781;23;20089;-88
2021/12/17 13:23:22;;;;;;;168.20;77.32;;;;;;;2.51;100.00;101945.22;6200623;23;20016;-89
2021/12/17 13:26:01;;;;;;;168.95;79.15;;;;;;;2.69;100.00;101932.97;6215183;23;20444;-85
2021/12/17 13:28:28;;;;;;;167.50;77.97;;;;;;;2.67;100.00;101929.59;6220942;22;20012;-87
2021/12/17 13:30:55;;;;;;;159.50;75.60;;;;;;;2.74;100.00;101930.97;6246365;23;20062;-86
2021/12/17 13:33:21;;;;;;;164.68;80.22;;;;;;;2.94;100.00;101933.44;6246546;22;20392;-87
2021/12/17 13:35:47;;;;;;;168.65;82.28;;;;;;;2.83;100.00;101935.75;6246009;23;20039;-87
2021/12/17 13:38:12;;;;;;;163.93;78.05;;;;;;;2.79;100.00;101936.81;6220510;23;20019;-88
2021/12/17 13:40:40;;;;;;;167.80;81.60;;;;;;;2.91;100.00;101932.75;6247618;23;20058;-88
2021/12/17 13:43:05;;;;;;;161.48;77.03;;;;;;;2.86;100.00;101925.09;6247371;23;20416;-86
2021/12/17 13:45:32;;;;;;;162.75;79.45;;;;;;;2.80;100.00;101924.56;6246413;22;20043;-86
2021/12/17 13:47:58;;;;;;;170.93;81.95;;;;;;;2.74;100.00;101920.50;6246065;23;20092;-87
2021/12/17 13:50:30;;;;;;;165.88;79.82;;;;;;;2.84;100.00;101910.41;6243326;23;20039;-84
2021/12/17 13:53:10;;;;;;;160.25;76.68;;;;;;;2.94;100.00;101919.50;6244688;23;20099;-84
2021/12/17 13:55:46;;;;;;;155.02;77.03;;;;;;;3.12;100.00;101918.50;6246145;23;20012;-91
2021/12/17 13:58:14;;;;;;;158.65;76.32;;;;;;;2.94;100.00;101912.47;6246406;22;20091;-87
2021/12/17 14:00:46;;;;;;;168.82;79.07;;;;;;;2.80;100.00;101908.88;6244409;23;20012;-86
2021/12/17 14:03:19;;;;;;;166.77;79.68;;;;;;;2.86;100.00;101912.00;6251876;22;20009;-86
2021/12/17 14:05:51;;;;;;;146.85;75.25;;;;;;;2.75;100.00;101911.72;6246824;23;20496;-87
2021/12/17 14:08:21;;;;;;;137.27;71.17;;;;;;;2.77;100.00;101909.03;6245273;23;20019;-89
2021/12/17 14:10:48;;;;;;;144.52;74.45;;;;;;;2.65;100.00;101899.19;6250340;23;20016;-89
2021/12/17 14:13:19;;;;;;;147.98;73.25;;;;;;;2.52;100.00;101886.72;6247745;22;20004;-89
2021/12/17 14:15:46;;;;;;;150.50;75.15;;;;;;;2.49;100.00;101881.63;6248893;22;20015;-86
2021/12/17 14:18:16;;;;;;;147.68;75.60;;;;;;;2.48;100.00;101884.34;6245147;23;20079;-89
2021/12/17 14:20:51;;;;;;;148.15;75.35;;;;;;;2.43;100.00;101899.41;6245161;23;20423;-85
2021/12/17 14:23:26;;;;;;;142.00;72.88;;;;;;;2.41;100.00;101902.13;6244551;23;20512;-86
2021/12/17 14:25:54;;;;;;;137.82;70.55;;;;;;;2.44;100.00;101881.03;6244250;23;20015;-86
2021/12/17 14:28:30;;;;;;;147.45;73.28;;;;;;;2.44;100.00;101886.25;6247446;22;20019;-87
2021/12/17 14:31:05;;;;;;;137.90;72.22;;;;;;;2.49;100.00;101889.47;6246877;22;20016;-89
2021/12/17 14:33:34;;;;;;;139.52;70.95;;;;;;;2.56;100.00;101876.94;6247056;22;20054;-85
2021/12/17 14:36:08;;;;;;;142.57;71.82;;;;;;;2.49;100.00;101872.94;6246742;22;20008;-85
2021/12/17 14:38:35;;;;;;;157.57;73.43;;;;;;;2.51;100.00;101871.09;6245667;23;20352;-87
2021/12/17 14:41:02;;;;;;;144.75;72.80;;;;;;;2.54;100.00;101882.25;6246559;22;20439;-90
2021/12/17 14:43:31;;;;;;;154.55;75.30;;;;;;;2.40;100.00;101899.56;6247447;22;20493;-89
2021/12/17 14:46:08;;;;;;;156.32;77.28;;;;;;;2.45;100.00;101893.16;6246827;22;20028;-87
2021/12/17 14:48:55;;;;;;;172.05;75.63;;;;;;;2.35;100.00;101888.50;6246323;22;20343;-85
2021/12/17 15:04:47;;;;;;;166.50;71.03;;;;;;;2.14;100.00;101879.09;6273284;22;20080;-82
2021/12/17 15:07:20;;;;;;;156.85;70.40;;;;;;;2.10;100.00;101886.22;6273077;22;20008;-84
2021/12/17 15:09:49;;;;;;;223.27;69.60;;;;;;;2.04;100.00;101886.53;6269075;22;20023;-83
2021/12/17 15:15:21;;;;;;;199.05;66.28;;;;;;;1.92;100.00;101848.75;6186658;23;20040;-86
2021/12/17 15:17:49;;;;;;;159.85;68.13;;;;;;;1.98;100.00;101842.38;6186411;23;20025;-84
2021/12/17 15:20:18;;;;;;;177.52;67.63;;;;;;;1.91;100.00;101843.59;6158484;23;20017;-82
2021/12/17 15:22:48;;;;;;;191.57;67.00;;;;;;;1.76;100.00;101844.31;6186772;23;20021;-83
2021/12/17 15:25:15;;;;;;;166.75;72.88;;;;;;;1.79;100.00;101847.63;6224750;22;20008;-85
2021/12/17 15:27:42;;;;;;;192.52;73.35;;;;;;;1.59;100.00;101831.25;6249442;22;20011;-86
2021/12/17 15:30:15;;;;;;;170.52;70.03;;;;;;;1.56;100.00;101832.22;6248806;23;20008;-85
2021/12/17 15:32:42;;;;;;;176.40;73.85;;;;;;;1.47;100.00;101833.50;6250644;22;20012;-84
2021/12/17 15:35:11;;;;;;;221.85;69.95;;;;;;;1.38;100.00;101838.31;6251084;23;20070;-83
2021/12/17 15:37:37;;;;;;;146.57;70.22;;;;;;;1.61;100.00;101834.63;6257180;22;20018;-83
2021/12/17 15:40:06;;;;;;;433.13;73.50;;;;;;;1.43;100.00;101825.88;6255923;22;20007;-84
2021/12/17 15:42:36;;;;;;;221.75;71.70;;;;;;;1.40;100.00;101816.44;6248919;23;20039;-83
2021/12/17 15:45:06;;;;;;;326.77;72.32;;;;;;;1.50;100.00;101807.25;6249693;23;20469;-86
2021/12/17 15:47:32;;;;;;;146.23;67.63;;;;;;;1.62;100.00;101799.75;6250987;22;20005;-86
2021/12/17 15:50:00;;;;;;;145.43;66.70;;;;;;;1.60;100.00;101806.78;6253000;22;20044;-85
2021/12/17 15:52:28;;;;;;;173.50;68.43;;;;;;;1.58;100.00;101808.63;6253506;23;20008;-84
2021/12/17 15:54:54;;;;;;;150.65;67.32;;;;;;;1.58;100.00;101809.50;6252650;23;20012;-87
2021/12/17 15:57:20;;;;;;;200.55;69.47;;;;;;;1.36;100.00;101804.41;6252526;22;20379;-85
2021/12/17 15:59:48;;;;;;;164.77;65.25;;;;;;;1.26;100.00;101792.72;6253507;23;20343;-86
2021/12/17 16:02:16;;;;;;;130.80;66.53;;;;;;;1.33;100.00;101786.28;6252486;22;20016;-83
2021/12/17 16:04:47;;;;;;;138.00;66.97;;;;;;;1.34;100.00;101785.38;6256250;23;19995;-83
2021/12/17 16:07:14;;;;;;;138.20;63.90;;;;;;;1.48;100.00;101780.34;6262050;22;20035;-81
2021/12/17 16:22:59;;;;;;;108.65;60.80;;;;;;;2.13;100.00;101771.00;6251251;22;20078;-88
2021/12/17 16:25:24;;;;;;;103.38;59.08;;;;;;;1.95;100.00;101771.97;6223025;23;20423;-91
2021/12/17 16:27:53;;;;;;;107.13;56.78;;;;;;;2.02;100.00;101783.81;6248111;23;20019;-89
2021/12/17 16:30:23;;;;;;;106.55;61.92;;;;;;;2.12;100.00;101778.94;6250226;23;20076;-89
2021/12/17 16:32:49;;;;;;;223.85;96.00;;;;;;;2.46;100.00;101787.59;6220607;23;20055;-89
2021/12/17 16:35:15;;;;;;;184.07;86.75;;;;;;;2.36;100.00;101783.75;6197057;23;20015;-85
2021/12/17 16:37:41;;;;;;;146.23;74.60;;;;;;;2.13;100.00;101778.00;6197492;23;20046;-87
2021/12/17 16:40:11;;;;;;;127.55;68.25;;;;;;;1.87;100.00;101774.09;6199418;23;20012;-90
2021/12/17 16:42:37;;;;;;;122.38;66.10;;;;;;;1.96;100.00;101773.63;6251463;23;20127;-86
2021/12/17 16:47:43;;;;;;;161.02;78.63;;;;;;;2.07;100.00;101782.63;6252987;23;20004;-84
2021/12/17 16:50:09;;;;;;;155.18;82.57;;;;;;;2.34;100.00;101785.63;6251600;23;20012;-89
2021/12/17 16:52:35;;;;;;;177.80;89.90;;;;;;;2.22;100.00;101769.72;6252894;23;20012;-87
2021/12/17 16:55:04;;;;;;;147.18;78.88;;;;;;;2.04;100.00;101766.25;6223149;23;20042;-85
2021/12/17 16:57:30;;;;;;;139.43;74.35;;;;;;;1.76;100.00;101771.16;6252525;23;20024;-89
2021/12/17 16:59:57;;;;;;;142.25;75.25;;;;;;;1.54;100.00;101777.44;6257569;23;20079;-86
2021/12/17 17:02:22;;;;;;;135.82;73.85;;;;;;;1.69;100.00;101767.19;6268110;23;20012;-87
2021/12/17 17:04:48;;;;;;;133.05;72.57;;;;;;;1.53;100.00;101773.13;6251622;23;20040;-85
2021/12/17 17:07:17;;;;;;;138.13;75.00;;;;;;;1.36;100.00;101780.09;6252472;23;20015;-92
2021/12/17 17:09:56;;;;;;;141.30;74.03;;;;;;;1.59;100.00;101784.22;6208778;23;20012;-88
2021/12/17 17:12:33;;;;;;;134.13;69.70;;;;;;;1.37;100.00;101780.00;6222928;23;20035;-89
2021/12/17 17:15:02;;;;;;;140.30;74.43;;;;;;;1.27;100.00;101770.91;6228832;23;20012;-86
2021/12/17 17:17:28;;;;;;;132.73;69.60;;;;;;;1.16;100.00;101770.56;6224823;23;20023;-89
2021/12/17 17:20:07;;;;;;;133.35;69.38;;;;;;;1.11;100.00;101776.91;6203541;23;20004;-89
2021/12/17 17:22:33;;;;;;;130.27;68.75;;;;;;;1.16;100.00;101775.78;6232849;23;20020;-89
2021/12/17 17:24:59;;;;;;;129.90;69.50;;;;;;;1.09;100.00;101782.22;6254581;23;20027;-89
2021/12/17 17:27:28;;;;;;;135.07;70.85;;;;;;;1.34;100.00;101777.53;6258157;23;20410;-89
2021/12/17 17:29:53;;;;;;;144.55;74.45;;;;;;;1.38;100.00;101784.31;6228834;23;20063;-88
2021/12/17 17:32:26;;;;;;;133.88;67.47;;;;;;;1.44;100.00;101777.94;6256086;22;20004;-86
2021/12/17 17:34:55;;;;;;;114.45;64.07;;;;;;;1.72;100.00;101774.88;6258239;23;20008;-88
2021/12/17 17:37:22;;;;;;;108.85;59.25;;;;;;;1.51;100.00;101761.91;6250386;23;20328;-85
2021/12/17 17:39:48;;;;;;;118.25;65.20;;;;;;;1.13;100.00;101760.25;6251832;22;20015;-86
2021/12/17 17:42:13;;;;;;;120.90;64.68;;;;;;;1.28;100.00;101754.34;6252783;23;20004;-86
2021/12/17 17:44:42;;;;;;;128.80;69.60;;;;;;;1.39;100.00;101752.03;6250677;22;20083;-88
2021/12/17 17:47:08;;;;;;;125.30;66.75;;;;;;;1.70;100.00;101753.16;6251631;23;20016;-88
2021/12/17 17:49:34;;;;;;;136.88;73.82;;;;;;;1.50;100.00;101760.22;6253135;22;20008;-87
2021/12/17 17:52:00;;;;;;;137.48;71.55;;;;;;;1.37;100.00;101753.88;6225506;23;20143;-86
2021/12/17 17:54:25;;;;;;;121.20;65.85;;;;;;;1.17;100.00;101754.00;6249585;23;20012;-87
2021/12/17 17:56:51;;;;;;;126.15;69.57;;;;;;;1.10;100.00;101749.13;6249326;23;20012;-86
2021/12/17 17:59:16;;;;;;;133.73;72.60;;;;;;;0.98;100.00;101750.53;6250605;22;20004;-90
2021/12/17 18:01:42;;;;;;;139.55;76.93;;;;;;;0.94;100.00;101754.22;6232369;22;20079;-85
2021/12/17 18:04:17;;;;;;;128.07;71.53;;;;;;;1.01;100.00;101745.19;6255191;22;20016;-84
2021/12/17 18:06:42;;;;;;;130.40;68.53;;;;;;;0.98;100.00;101751.41;6229377;22;20462;-87
2021/12/17 18:09:08;;;;;;;101.97;58.33;;;;;;;0.90;100.00;101773.53;6233540;22;20015;-88
2021/12/17 18:11:46;;;;;;;94.72;53.78;;;;;;;0.60;100.00;101761.91;6262503;22;20008;-86
2021/12/17 18:14:18;;;;;;;90.50;51.25;;;;;;;0.47;100.00;101764.16;6237205;22;20043;-88
2021/12/17 18:16:50;;;;;;;89.05;50.10;;;;;;;0.49;100.00;101763.22;6233671;22;20038;-89
2021/12/17 18:19:20;;;;;;;89.70;52.97;;;;;;;0.36;100.00;101762.06;6234795;22;20027;-90
2021/12/17 18:21:46;;;;;;;92.07;52.42;;;;;;;0.23;100.00;101766.09;6189099;22;20019;-89
2021/12/17 18:24:12;;;;;;;101.65;57.88;;;;;;;0.17;100.00;101768.97;6274474;22;20027;-89
2021/12/17 18:26:41;;;;;;;116.68;64.28;;;;;;;0.23;100.00;101771.28;6223424;22;20018;-87
2021/12/17 18:29:09;;;;;;;110.38;60.85;;;;;;;0.24;100.00;101770.38;6238757;22;20023;-86
2021/12/17 18:31:35;;;;;;;111.03;62.85;;;;;;;0.18;100.00;101773.25;6263575;22;20462;-87
2021/12/17 18:34:03;;;;;;;130.18;69.50;;;;;;;0.12;100.00;101783.97;6263613;22;20018;-86
2021/12/17 18:36:31;;;;;;;121.93;65.68;;;;;;;0.17;100.00;101784.59;6262453;22;20012;-86
2021/12/17 18:39:04;;;;;;;116.95;65.75;;;;;;;0.14;100.00;101782.13;6288717;22;20003;-89
2021/12/17 18:41:48;;;;;;;115.20;63.55;;;;;;;0.15;100.00;101789.03;6268873;22;20023;-89
2021/12/17 18:44:49;;;;;;;;;;;;;;;;;;;;;
2021/12/17 18:47:35;;;;;;;102.18;56.40;;;;;;;0.34;100.00;101786.47;6199960;23;20093;-86
2021/12/17 19:24:54;;;;;;;120.53;68.60;;;;;;;-0.17;100.00;101787.78;6263440;22;20031;-91
2021/12/17 19:27:59;;;;;;;111.50;62.88;;;;;;;-0.08;100.00;101773.53;6257304;23;20044;-90
2021/12/17 19:30:53;;;;;;;;;;;;;;;;;;;;;
2021/12/17 19:40:13;;;;;;;;;;;;;;;;;;;;;
2021/12/17 19:43:24;;;;;;;;;;;;;;;;;;;;;
2021/12/17 19:50:33;;;;;;;93.93;50.88;;;;;;;0.86;100.00;101778.03;6061687;23;20015;-89
2021/12/17 19:53:05;;;;;;;86.68;48.58;;;;;;;0.86;100.00;101788.47;6028017;23;20019;-89
2021/12/17 19:55:39;;;;;;;97.18;52.58;;;;;;;0.72;100.00;101783.06;6026699;23;20376;-88
2021/12/17 19:58:05;;;;;;;92.85;51.63;;;;;;;0.76;100.00;101783.78;6116042;23;20021;-88
2021/12/17 20:00:35;;;;;;;88.88;49.22;;;;;;;0.88;100.00;101783.19;6147719;23;20022;-89
2021/12/17 20:03:37;;;;;;;89.93;49.67;;;;;;;0.77;100.00;101778.47;6125620;23;20017;-89
2021/12/17 20:14:52;;;;;;;178.07;47.58;;;;;;;0.40;100.00;101794.88;6269109;22;20040;-91
2021/12/17 20:34:35;;;;;;;325.90;53.78;;;;;;;-1.12;100.00;101830.56;6265706;22;20016;-91
2021/12/17 20:37:05;;;;;;;104.32;49.97;;;;;;;-0.98;100.00;101851.72;6265317;23;20088;-87
2021/12/17 21:02:41;;;;;;;211.00;59.08;;;;;;;-1.54;100.00;101804.34;6264299;22;20020;-88
2021/12/17 21:06:29;;;;;;;;;;;;;;;;;;;;;
2021/12/17 22:05:31;;;;;;;120.53;50.55;;;;;;;-1.81;100.00;101807.91;6205528;23;20017;-88
2021/12/17 22:08:02;;;;;;;171.52;53.97;;;;;;;-1.93;100.00;101801.38;6180255;23;20025;-89
2021/12/17 22:10:28;;;;;;;110.53;51.50;;;;;;;-1.85;100.00;101796.75;6128154;23;20017;-88
2021/12/17 22:12:56;;;;;;;95.82;50.53;;;;;;;-1.73;100.00;101801.56;6175852;23;20020;-89
2021/12/17 22:15:26;;;;;;;95.47;48.78;;;;;;;-1.89;100.00;101799.53;6205166;23;20005;-88
2021/12/17 22:17:55;;;;;;;93.70;48.83;;;;;;;-1.86;100.00;101779.50;6201734;23;20017;-86
2021/12/17 22:20:28;;;;;;;93.03;48.30;;;;;;;-1.83;100.00;101769.00;6177985;23;20028;-87
2021/12/17 22:22:55;;;;;;;85.53;46.92;;;;;;;-1.65;100.00;101773.53;6177223;23;20116;-87
2021/12/17 22:25:24;;;;;;;87.65;47.58;;;;;;;-1.41;100.00;101790.00;6200856;23;20013;-87
2021/12/17 22:27:50;;;;;;;92.05;49.17;;;;;;;-1.35;100.00;101797.59;6201601;23;20016;-90
2021/12/17 22:30:16;;;;;;;85.25;47.47;;;;;;;-1.45;100.00;101780.63;6177753;23;20005;-87
2021/12/17 22:32:41;;;;;;;85.57;48.88;;;;;;;-1.39;100.00;101779.56;6174710;23;20024;-85
2021/12/17 22:35:10;;;;;;;87.88;46.55;;;;;;;-0.93;100.00;101812.53;6178196;23;20013;-89
2021/12/17 22:37:36;;;;;;;87.18;46.90;;;;;;;-0.93;100.00;101795.16;6157875;23;20021;-89
2021/12/17 22:40:09;;;;;;;100.10;44.22;;;;;;;-1.19;100.00;101798.72;6157121;23;19993;-89
2021/12/17 22:42:35;;;;;;;86.07;43.53;;;;;;;-1.09;100.00;101791.41;6183028;23;20064;-90
2021/12/17 22:45:04;;;;;;;83.68;44.22;;;;;;;-1.30;100.00;101802.63;6184093;23;20036;-88
2021/12/17 22:47:30;;;;;;;133.23;44.92;;;;;;;-1.28;100.00;101793.88;6207326;23;20008;-88
2021/12/17 22:49:56;;;;;;;213.75;49.30;;;;;;;-1.53;100.00;101802.59;6153437;23;20090;-88
2021/12/17 22:52:21;;;;;;;123.28;46.47;;;;;;;-1.64;100.00;101800.38;6204081;23;20369;-86
2021/12/17 22:54:47;;;;;;;79.72;43.55;;;;;;;-1.78;100.00;101794.78;6151834;23;20376;-88
2021/12/17 22:57:13;;;;;;;75.45;41.65;;;;;;;-1.71;100.00;101788.50;6200941;23;20080;-86
2021/12/17 22:59:39;;;;;;;87.75;44.53;;;;;;;-1.74;100.00;101796.41;6200713;23;20076;-87
2021/12/17 23:02:07;;;;;;;92.45;45.03;;;;;;;-2.00;100.00;101806.81;6174980;23;20017;-88
2021/12/17 23:04:36;;;;;;;144.68;45.10;;;;;;;-2.00;100.00;101802.47;6200438;23;20460;-86
2021/12/17 23:07:06;;;;;;;81.22;43.80;;;;;;;-1.63;100.00;101804.69;6175508;23;20037;-88
2021/12/17 23:09:38;;;;;;;100.80;43.55;;;;;;;-1.95;100.00;101787.56;6201195;23;20463;-89
2021/12/17 23:12:07;;;;;;;92.60;45.72;;;;;;;-2.00;100.00;101784.31;6199264;23;20013;-88
2021/12/17 23:14:37;;;;;;;75.60;41.47;;;;;;;-1.60;100.00;101784.63;6172777;23;20030;-85
2021/12/17 23:17:04;;;;;;;78.75;42.60;;;;;;;-1.66;100.00;101782.22;6199826;23;20144;-87
2021/12/17 23:19:32;;;;;;;73.82;42.08;;;;;;;-1.39;100.00;101793.38;6149629;23;20015;-88
2021/12/17 23:21:59;;;;;;;77.38;43.05;;;;;;;-1.59;100.00;101788.91;6149642;23;20013;-88
2021/12/17 23:24:25;;;;;;;83.25;44.28;;;;;;;-1.61;100.00;101785.53;6201512;23;20013;-88
2021/12/17 23:26:51;;;;;;;80.05;43.10;;;;;;;-1.75;100.00;101782.53;6177847;23;20145;-87
2021/12/17 23:29:19;;;;;;;79.28;43.47;;;;;;;-1.80;100.00;101784.47;6203217;23;20013;-89
2021/12/17 23:31:45;;;;;;;90.45;48.03;;;;;;;-1.86;100.00;101789.88;6153016;23;20028;-88
2021/12/17 23:36:54;;;;;;;101.82;48.22;;;;;;;-1.73;100.00;101785.09;6201742;23;20040;-88
2021/12/17 23:39:21;;;;;;;125.00;47.10;;;;;;;-2.02;100.00;101793.06;6175070;23;20395;-88
2021/12/17 23:41:47;;;;;;;158.20;48.10;;;;;;;-2.10;100.00;101799.34;6176061;23;20013;-88
2021/12/17 23:44:13;;;;;;;90.35;48.50;;;;;;;-1.95;100.00;101790.16;6202043;23;20023;-89
2021/12/17 23:46:39;;;;;;;89.07;46.45;;;;;;;-2.01;100.00;101799.91;6175751;23;20024;-87
2021/12/17 23:49:09;;;;;;;86.05;46.25;;;;;;;-1.95;100.00;101795.38;6200861;23;20016;-88
2021/12/17 23:51:35;;;;;;;105.35;46.10;;;;;;;-2.08;100.00;101807.91;6152274;23;20089;-89
2021/12/17 23:54:03;;;;;;;169.32;46.05;;;;;;;-1.92;100.00;101804.84;6152854;23;20021;-87
2021/12/17 23:56:29;;;;;;;99.15;46.60;;;;;;;-1.95;100.00;101818.75;6204347;23;20001;-88
2021/12/17 23:58:56;;;;;;;197.60;46.72;;;;;;;-2.06;100.00;101809.63;6154894;23;20084;-88
